createdAt,value
2019-01-16T00:02:30.504Z,100836.70
2019-01-16T00:04:58.166Z,100831.87
2019-01-16T00:07:36.900Z,100832.13
2019-01-16T00:10:09.754Z,100830.25
2019-01-16T00:12:42.552Z,100823.48
2019-01-16T00:15:12.514Z,100824.56
2019-01-16T00:17:46.525Z,100825.65
2019-01-16T00:20:19.259Z,100824.86
2019-01-16T00:22:53.770Z,100817.84
2019-01-16T00:25:36.275Z,100812.48
2019-01-16T00:28:06.336Z,100817.38
2019-01-16T00:30:39.320Z,100813.06
2019-01-16T00:33:21.337Z,100809.89
2019-01-16T00:35:51.267Z,100810.16
2019-01-16T00:38:30.342Z,100800.45
2019-01-16T00:41:15.217Z,100805.88
2019-01-16T00:44:01.336Z,100802.89
2019-01-16T00:46:37.294Z,100801.30
2019-01-16T00:49:07.190Z,100796.75
2019-01-16T00:51:37.239Z,100798.60
2019-01-16T00:54:07.578Z,100794.06
2019-01-16T00:56:37.631Z,100790.24
2019-01-16T00:59:14.139Z,100786.76
2019-01-16T01:01:44.068Z,100784.06
2019-01-16T01:04:14.143Z,100781.36
2019-01-16T01:06:49.807Z,100785.38
2019-01-16T01:09:22.766Z,100781.36
2019-01-16T01:12:08.910Z,100777.03
2019-01-16T01:14:55.043Z,100771.16
2019-01-16T01:17:28.112Z,100765.74
2019-01-16T01:20:03.890Z,100772.74
2019-01-16T01:22:36.667Z,100758.47
2019-01-16T01:25:07.975Z,100760.61
2019-01-16T01:27:47.434Z,100760.90
2019-01-16T01:30:17.321Z,100766.30
2019-01-16T01:32:47.280Z,100759.58
2019-01-16T01:35:33.614Z,100759.05
2019-01-16T01:38:19.891Z,100760.11
2019-01-16T01:41:08.106Z,100758.20
2019-01-16T01:43:50.403Z,100756.36
2019-01-16T01:46:26.563Z,100746.36
2019-01-16T01:49:05.849Z,100750.97
2019-01-16T01:51:41.268Z,100749.09
2019-01-16T01:54:17.009Z,100740.73
2019-01-16T01:56:58.583Z,100743.95
2019-01-16T01:59:44.643Z,100744.23
2019-01-16T02:02:17.589Z,100739.09
2019-01-16T02:05:04.109Z,100734.58
2019-01-16T02:07:51.871Z,100743.14
2019-01-16T02:10:26.806Z,100739.36
2019-01-16T02:13:08.142Z,100739.38
2019-01-16T02:15:39.873Z,100732.61
2019-01-16T02:18:12.562Z,100739.63
2019-01-16T02:20:42.498Z,100730.97
2019-01-16T02:23:12.485Z,100738.25
2019-01-16T02:25:54.423Z,100733.15
2019-01-16T02:28:33.283Z,100734.49
2019-01-16T02:31:18.225Z,100722.36
2019-01-16T02:34:04.211Z,100719.40
2019-01-16T02:36:46.429Z,100717.47
2019-01-16T02:39:21.874Z,100716.67
2019-01-16T02:41:51.835Z,100707.50
2019-01-16T02:44:31.827Z,100702.89
2019-01-16T02:47:11.909Z,100700.20
2019-01-16T02:49:44.644Z,100700.76
2019-01-16T02:52:25.126Z,100699.38
2019-01-16T02:55:12.866Z,100693.40
2019-01-16T02:57:45.670Z,100694.72
2019-01-16T03:00:15.655Z,100693.66
2019-01-16T03:03:01.652Z,100690.11
2019-01-16T03:05:37.435Z,100689.06
2019-01-16T03:08:07.431Z,100688.56
2019-01-16T03:10:37.352Z,100686.92
2019-01-16T03:13:18.930Z,100683.34
2019-01-16T03:16:03.981Z,100686.86
2019-01-16T03:18:36.823Z,100670.70
2019-01-16T03:21:09.762Z,100674.48
2019-01-16T03:23:44.936Z,100665.52
2019-01-16T03:26:24.076Z,100672.05
2019-01-16T03:28:56.519Z,100670.44
2019-01-16T03:31:35.497Z,100669.06
2019-01-16T03:34:14.505Z,100666.37
2019-01-16T03:36:53.340Z,100661.47
2019-01-16T03:39:29.191Z,100656.37
2019-01-16T03:42:03.408Z,100659.92
2019-01-16T03:44:51.262Z,100653.38
2019-01-16T03:47:30.167Z,100650.94
2019-01-16T03:50:15.318Z,100652.32
2019-01-16T03:52:47.879Z,100648.28
2019-01-16T03:55:26.643Z,100647.45
2019-01-16T03:57:56.593Z,100635.84
2019-01-16T04:00:31.175Z,100628.88
2019-01-16T04:03:13.040Z,100629.40
2019-01-16T04:05:46.202Z,100631.02
2019-01-16T04:08:30.985Z,100627.86
2019-01-16T04:11:06.893Z,100619.99
2019-01-16T04:13:49.145Z,100618.12
2019-01-16T04:16:31.840Z,100611.34
2019-01-16T04:19:07.575Z,100612.66
2019-01-16T04:21:39.649Z,100612.06
2019-01-16T04:24:15.810Z,100603.74
2019-01-16T04:26:51.730Z,100600.75
2019-01-16T04:29:27.866Z,100602.39
2019-01-16T04:32:09.642Z,100593.70
2019-01-16T04:34:55.979Z,100605.36
2019-01-16T04:37:31.758Z,100596.50
2019-01-16T04:40:17.021Z,100596.50
2019-01-16T04:42:46.930Z,100589.20
2019-01-16T04:45:25.922Z,100585.42
2019-01-16T04:48:11.885Z,100581.11
2019-01-16T04:50:42.124Z,100583.55
2019-01-16T04:53:12.115Z,100582.16
2019-01-16T04:55:57.062Z,100566.25
2019-01-16T04:58:42.178Z,100567.59
2019-01-16T05:01:20.850Z,100560.25
2019-01-16T05:03:54.291Z,100554.67
2019-01-16T05:06:26.969Z,100561.19
2019-01-16T05:08:56.954Z,100561.68
2019-01-16T05:11:26.894Z,100552.20
2019-01-16T05:14:04.636Z,100554.41
2019-01-16T05:16:50.768Z,100551.75
2019-01-16T05:19:23.698Z,100551.15
2019-01-16T05:22:02.324Z,100545.23
2019-01-16T05:24:38.658Z,100539.88
2019-01-16T05:27:08.645Z,100545.00
2019-01-16T05:29:50.833Z,100546.05
2019-01-16T05:32:33.410Z,100543.36
2019-01-16T05:35:19.661Z,100537.51
2019-01-16T05:37:49.607Z,100542.27
2019-01-16T05:40:31.576Z,100540.70
2019-01-16T05:43:01.514Z,100541.22
2019-01-16T05:45:52.628Z,100537.21
2019-01-16T05:48:25.374Z,100534.48
2019-01-16T05:50:58.221Z,100532.12
2019-01-16T05:53:40.178Z,100528.56
2019-01-16T05:56:25.072Z,100540.14
2019-01-16T05:59:10.686Z,100532.87
2019-01-16T06:01:40.599Z,100522.87
2019-01-16T06:04:16.320Z,100523.43
2019-01-16T06:06:47.920Z,100531.48
2019-01-16T06:09:20.302Z,100524.73
2019-01-16T06:11:50.287Z,100524.89
2019-01-16T06:14:31.953Z,100524.66
2019-01-16T06:17:14.052Z,100524.41
2019-01-16T06:19:44.011Z,100519.80
2019-01-16T06:22:13.996Z,100515.79
2019-01-16T06:24:43.924Z,100520.58
2019-01-16T06:27:22.779Z,100516.27
2019-01-16T06:29:52.698Z,100523.50
2019-01-16T06:32:28.509Z,100520.66
2019-01-16T06:35:14.928Z,100507.96
2019-01-16T06:38:03.146Z,100516.02
2019-01-16T06:40:33.088Z,100511.44
2019-01-16T06:43:07.472Z,100509.27
2019-01-16T06:45:49.552Z,100508.48
2019-01-16T06:48:22.188Z,100502.23
2019-01-16T06:50:57.650Z,100495.78
2019-01-16T06:53:39.793Z,100489.04
2019-01-16T06:56:12.764Z,100498.78
2019-01-16T06:58:51.782Z,100485.03
2019-01-16T07:01:27.634Z,100483.34
2019-01-16T07:04:00.649Z,100477.42
2019-01-16T07:06:40.292Z,100483.30
2019-01-16T07:09:16.200Z,100477.31
2019-01-16T07:11:51.964Z,100478.17
2019-01-16T07:14:38.242Z,100476.82
2019-01-16T07:17:11.342Z,100477.65
2019-01-16T07:19:47.392Z,100482.55
2019-01-16T07:22:17.302Z,100478.95
2019-01-16T07:24:50.152Z,100472.77
2019-01-16T07:27:32.015Z,100469.81
2019-01-16T07:30:01.979Z,100476.11
2019-01-16T07:32:40.912Z,100470.45
2019-01-16T07:35:22.750Z,100470.95
2019-01-16T07:38:07.744Z,100472.85
2019-01-16T07:40:53.756Z,100461.28
2019-01-16T07:43:29.670Z,100464.84
2019-01-16T07:46:02.053Z,100459.45
2019-01-16T07:48:32.099Z,100458.63
2019-01-16T07:51:07.811Z,100459.97
2019-01-16T07:53:43.609Z,100454.06
2019-01-16T07:56:13.632Z,100462.11
2019-01-16T07:58:55.686Z,100462.66
2019-01-16T08:01:25.602Z,100452.92
2019-01-16T08:03:55.547Z,100457.50
2019-01-16T08:06:25.601Z,100460.20
2019-01-16T08:09:01.031Z,100461.84
2019-01-16T08:11:49.039Z,100464.84
2019-01-16T08:14:18.965Z,100458.97
2019-01-16T08:17:00.978Z,100462.15
2019-01-16T08:19:45.693Z,100457.02
2019-01-16T08:22:24.365Z,100458.41
2019-01-16T08:24:54.363Z,100457.09
2019-01-16T08:27:26.954Z,100465.41
2019-01-16T08:30:09.289Z,100466.53
2019-01-16T08:32:55.855Z,100467.32
2019-01-16T08:35:31.631Z,100468.97
2019-01-16T08:38:04.463Z,100468.44
2019-01-16T08:40:40.395Z,100459.30
2019-01-16T08:43:23.168Z,100463.66
2019-01-16T08:46:03.924Z,100462.31
2019-01-16T08:48:40.710Z,100466.91
2019-01-16T08:51:22.838Z,100461.59
2019-01-16T08:54:04.401Z,100463.25
2019-01-16T08:56:34.415Z,100464.34
2019-01-16T08:59:21.258Z,100461.11
2019-01-16T09:01:51.558Z,100465.95
2019-01-16T09:04:40.071Z,100465.49
2019-01-16T09:07:18.883Z,100460.37
2019-01-16T09:09:48.864Z,100456.63
2019-01-16T09:12:35.535Z,100460.97
2019-01-16T09:15:10.141Z,100465.01
2019-01-16T09:17:45.741Z,100455.08
2019-01-16T09:20:31.158Z,100455.91
2019-01-16T09:23:03.913Z,100446.14
2019-01-16T09:25:39.622Z,100446.81
2019-01-16T09:28:21.685Z,100445.95
2019-01-16T09:31:03.604Z,100444.91
2019-01-16T09:33:42.334Z,100446.55
2019-01-16T09:36:12.297Z,100440.11
2019-01-16T09:39:01.525Z,100443.89
2019-01-16T09:41:40.616Z,100438.47
2019-01-16T09:44:15.709Z,100436.37
2019-01-16T09:46:50.653Z,100435.52
2019-01-16T09:49:23.758Z,100434.42
2019-01-16T09:52:16.488Z,100432.70
2019-01-16T09:54:58.456Z,100424.02
2019-01-16T09:57:28.565Z,100424.58
2019-01-16T10:00:08.854Z,100425.44
2019-01-16T10:03:02.670Z,100423.94
2019-01-16T10:05:39.235Z,100428.58
2019-01-16T10:08:18.276Z,100420.80
2019-01-16T10:11:08.395Z,100416.03
2019-01-16T10:13:47.401Z,100414.17
2019-01-16T10:16:20.257Z,100405.89
2019-01-16T10:19:10.186Z,100406.13
2019-01-16T10:22:01.617Z,100402.38
2019-01-16T10:24:51.074Z,100407.30
2019-01-16T10:27:44.516Z,100408.13
2019-01-16T10:30:37.386Z,100397.92
2019-01-16T10:33:13.069Z,100401.95
2019-01-16T10:36:09.453Z,100392.79
2019-01-16T10:38:52.931Z,100397.36
2019-01-16T10:41:39.639Z,100388.98
2019-01-16T10:44:27.803Z,100381.23
2019-01-16T10:47:01.943Z,100368.33
2019-01-16T10:49:38.107Z,100368.88
2019-01-16T10:52:08.082Z,100362.67
2019-01-16T10:54:47.521Z,100360.24
2019-01-16T10:57:17.286Z,100353.84
2019-01-16T11:00:03.206Z,100349.51
2019-01-16T11:03:04.372Z,100346.85
2019-01-16T11:05:49.144Z,100342.59
2019-01-16T11:08:22.877Z,100348.83
2019-01-16T11:10:55.950Z,100347.94
2019-01-16T11:13:55.484Z,100352.05
2019-01-16T11:16:36.422Z,100343.73
2019-01-16T11:19:15.819Z,100350.73
2019-01-16T11:22:08.213Z,100332.45
2019-01-16T11:24:49.940Z,100330.23
2019-01-16T11:27:27.473Z,100318.39
2019-01-16T11:30:16.236Z,100317.56
2019-01-16T11:33:15.820Z,100306.31
2019-01-16T11:35:59.384Z,100309.56
2019-01-16T11:38:50.646Z,100309.06
2019-01-16T11:41:41.190Z,100307.76
2019-01-16T11:44:20.736Z,100286.75
2019-01-16T11:46:56.565Z,100293.18
2019-01-16T11:49:47.482Z,100284.05
2019-01-16T11:52:25.821Z,100282.67
2019-01-16T11:54:59.135Z,100285.36
2019-01-16T11:57:33.853Z,100280.50
2019-01-16T12:00:08.685Z,100284.05
2019-01-16T12:02:47.777Z,100275.45
2019-01-16T12:05:17.809Z,100274.85
2019-01-16T12:07:47.817Z,100273.84
2019-01-16T12:10:29.885Z,100273.58
2019-01-16T12:13:11.264Z,100271.41
2019-01-16T12:16:00.616Z,100253.05
2019-01-16T12:18:41.492Z,100254.73
2019-01-16T12:21:30.843Z,100251.26
2019-01-16T12:24:07.553Z,100251.97
2019-01-16T12:26:43.867Z,100242.58
2019-01-16T12:29:31.563Z,100233.23
2019-01-16T12:32:13.644Z,100225.91
2019-01-16T12:34:46.334Z,100216.96
2019-01-16T12:37:22.250Z,100209.67
2019-01-16T12:39:58.285Z,100203.23
2019-01-16T12:42:40.199Z,100196.77
2019-01-16T12:45:10.085Z,100191.64
2019-01-16T12:47:49.106Z,100184.65
2019-01-16T12:50:38.028Z,100179.52
2019-01-16T12:53:08.126Z,100178.41
2019-01-16T12:55:57.828Z,100181.92
2019-01-16T12:58:33.787Z,100180.57
2019-01-16T13:01:12.608Z,100176.48
2019-01-16T13:03:42.793Z,100168.89
2019-01-16T13:06:30.989Z,100168.89
2019-01-16T13:09:16.621Z,100170.80
2019-01-16T13:11:52.375Z,100170.45
2019-01-16T13:14:33.825Z,100171.02
2019-01-16T13:17:21.605Z,100168.85
2019-01-16T13:19:54.363Z,100162.94
2019-01-16T13:22:36.421Z,100164.86
2019-01-16T13:25:12.150Z,100166.06
2019-01-16T13:28:01.272Z,100165.02
2019-01-16T13:30:38.790Z,100154.29
2019-01-16T13:33:08.889Z,100154.56
2019-01-16T13:35:38.822Z,100150.82
2019-01-16T13:38:08.934Z,100144.34
2019-01-16T13:43:39.760Z,100130.62
2019-01-16T13:46:17.148Z,100133.70
2019-01-16T13:49:05.174Z,100130.36
2019-01-16T13:51:34.928Z,100121.50
2019-01-16T13:54:07.780Z,100117.98
2019-01-16T13:56:55.479Z,100106.22
2019-01-16T13:59:38.495Z,100109.13
2019-01-16T14:02:20.739Z,100109.04
2019-01-16T14:05:10.251Z,100104.92
2019-01-16T14:07:35.648Z,100104.09
2019-01-16T14:10:26.726Z,100088.59
2019-01-16T14:13:05.232Z,100090.46
2019-01-16T14:15:42.803Z,100096.93
2019-01-16T14:18:23.181Z,100090.80
2019-01-16T14:20:57.667Z,100095.14
2019-01-16T14:23:27.700Z,100097.61
2019-01-16T14:26:16.041Z,100091.06
2019-01-16T14:29:16.492Z,100090.06
2019-01-16T14:31:49.183Z,100083.16
2019-01-16T14:34:35.227Z,100075.05
2019-01-16T14:37:26.514Z,100065.97
2019-01-16T14:40:12.064Z,100064.33
2019-01-16T14:45:40.657Z,100066.91
2019-01-16T14:48:31.623Z,100064.50
2019-01-16T14:51:04.717Z,100064.53
2019-01-16T14:53:37.810Z,100061.84
2019-01-16T14:56:39.244Z,100053.25
2019-01-16T15:05:41.913Z,100047.66
2019-01-16T15:08:25.272Z,100057.89
2019-01-16T15:11:01.438Z,100048.39
2019-01-16T15:13:34.518Z,100041.93
2019-01-16T15:16:12.580Z,100038.45
2019-01-16T15:19:00.710Z,100027.70
2019-01-16T15:21:36.403Z,100031.21
2019-01-16T15:24:11.544Z,100033.67
2019-01-16T15:26:39.108Z,100025.53
2019-01-16T15:29:16.825Z,100021.58
2019-01-16T15:31:44.124Z,100013.25
2019-01-16T15:34:26.218Z,100014.16
2019-01-16T15:37:00.614Z,100012.77
2019-01-16T15:39:48.862Z,100012.25
2019-01-16T15:42:37.513Z,100013.25
2019-01-16T15:45:14.496Z,100004.36
2019-01-16T15:47:44.636Z,99995.03
2019-01-16T15:50:20.564Z,99991.73
2019-01-16T15:52:53.394Z,99992.81
2019-01-16T15:55:35.683Z,100001.97
2019-01-16T15:58:08.216Z,99983.79
2019-01-16T16:00:38.379Z,99983.48
2019-01-16T16:03:17.210Z,99979.71
2019-01-16T16:06:03.225Z,99978.63
2019-01-16T16:08:33.241Z,99974.38
2019-01-16T16:11:15.152Z,99974.42
2019-01-16T16:13:48.151Z,99987.91
2019-01-16T16:16:30.213Z,99979.58
2019-01-16T16:19:15.570Z,99968.78
2019-01-16T16:21:45.715Z,99967.00
2019-01-16T16:24:32.124Z,99948.48
2019-01-16T16:27:10.011Z,99947.70
2019-01-16T16:29:46.414Z,99955.77
2019-01-16T16:32:31.318Z,99945.58
2019-01-16T16:35:01.357Z,99945.66
2019-01-16T16:37:31.378Z,99950.25
2019-01-16T16:40:19.768Z,99937.34
2019-01-16T16:42:55.309Z,99933.95
2019-01-16T16:45:40.719Z,99933.95
2019-01-16T16:48:19.658Z,99933.52
2019-01-16T16:50:58.167Z,99941.40
2019-01-16T16:53:44.391Z,99934.13
2019-01-16T16:56:22.257Z,99934.08
2019-01-16T16:59:08.398Z,99921.23
2019-01-16T17:01:44.223Z,99924.41
2019-01-16T17:04:14.216Z,99927.96
2019-01-16T17:06:46.686Z,99913.58
2019-01-16T17:09:28.488Z,99911.38
2019-01-16T17:12:16.442Z,99911.63
2019-01-16T17:15:01.211Z,99904.66
2019-01-16T17:17:32.933Z,99897.62
2019-01-16T17:20:09.022Z,99894.72
2019-01-16T17:22:47.966Z,99889.09
2019-01-16T17:25:29.772Z,99889.69
2019-01-16T17:28:17.582Z,99886.27
2019-01-16T17:31:03.869Z,99886.27
2019-01-16T17:33:33.816Z,99867.67
2019-01-16T17:36:03.774Z,99862.95
2019-01-16T17:38:42.369Z,99862.95
2019-01-16T17:41:18.231Z,99861.95
2019-01-16T17:43:48.239Z,99857.09
2019-01-16T17:46:33.339Z,99857.09
2019-01-16T17:49:12.199Z,99849.81
2019-01-16T17:51:58.345Z,99849.86
2019-01-16T17:54:34.231Z,99837.89
2019-01-16T17:57:20.523Z,99837.89
2019-01-16T18:00:06.609Z,99825.16
2019-01-16T18:02:39.607Z,99824.12
2019-01-16T18:05:25.958Z,99815.62
2019-01-16T18:07:58.868Z,99815.62
2019-01-16T18:10:42.098Z,99811.03
2019-01-16T18:13:14.579Z,99811.94
2019-01-16T18:15:44.961Z,99811.94
2019-01-16T18:18:23.790Z,99794.03
2019-01-16T18:21:05.597Z,99794.03
2019-01-16T18:23:51.739Z,99797.72
2019-01-16T18:26:24.116Z,99791.23
2019-01-16T18:29:06.082Z,99780.52
2019-01-16T18:31:45.004Z,99785.63
2019-01-16T18:34:18.031Z,99771.59
2019-01-16T18:36:56.925Z,99771.59
2019-01-16T18:39:43.026Z,99774.37
2019-01-16T18:42:31.287Z,99755.91
2019-01-16T18:45:02.660Z,99750.28
2019-01-16T18:47:41.831Z,99749.75
2019-01-16T18:50:14.374Z,99760.72
2019-01-16T18:52:44.334Z,99760.72
2019-01-16T18:55:23.326Z,99746.91
2019-01-16T18:58:05.221Z,99742.78
2019-01-16T19:00:47.409Z,99748.41
2019-01-16T19:03:17.340Z,99748.41
2019-01-16T19:05:53.188Z,99735.91
2019-01-16T19:08:25.929Z,99744.95
2019-01-16T19:10:59.464Z,99744.95
2019-01-16T19:13:29.607Z,99747.99
2019-01-16T19:16:00.206Z,99747.73
2019-01-16T19:18:52.743Z,99744.82
2019-01-16T19:21:25.627Z,99736.20
2019-01-16T19:24:01.531Z,99738.89
2019-01-16T19:26:31.488Z,99738.89
2019-01-16T19:29:13.928Z,99736.46
2019-01-16T19:31:43.870Z,99713.47
2019-01-16T19:34:13.835Z,99724.47
2019-01-16T19:36:49.600Z,99717.14
2019-01-16T19:39:35.936Z,99717.14
2019-01-16T19:42:09.650Z,99707.01
2019-01-16T19:44:42.477Z,99702.07
2019-01-16T19:47:28.593Z,99683.09
2019-01-16T19:50:04.010Z,99683.09
2019-01-16T19:52:48.876Z,99696.02
2019-01-16T19:55:35.529Z,99692.09
2019-01-16T19:58:11.552Z,99677.02
2019-01-16T20:00:57.829Z,99678.66
2019-01-16T20:03:33.551Z,99674.07
2019-01-16T20:06:15.384Z,99674.07
2019-01-16T20:08:51.351Z,99667.91
2019-01-16T20:11:26.900Z,99667.91
2019-01-16T20:14:13.343Z,99671.39
2019-01-16T20:16:46.137Z,99666.57
2019-01-16T20:19:31.258Z,99661.55
2019-01-16T20:22:01.417Z,99656.08
2019-01-16T20:24:46.346Z,99656.08
2019-01-16T20:27:16.707Z,99640.29
2019-01-16T20:29:46.662Z,99640.29
2019-01-16T20:32:22.633Z,99628.03
2019-01-16T20:35:09.981Z,99628.03
2019-01-16T20:37:45.888Z,99629.67
2019-01-16T20:40:21.617Z,99629.67
2019-01-16T20:42:51.610Z,99625.09
2019-01-16T20:45:21.496Z,99625.09
2019-01-16T20:47:51.404Z,99632.59
2019-01-16T20:50:21.467Z,99617.64
2019-01-16T20:52:51.367Z,99617.64
2019-01-16T20:55:37.763Z,99608.77
2019-01-16T20:58:23.543Z,99598.48
2019-01-16T21:00:59.647Z,99597.92
2019-01-16T21:03:32.095Z,99590.84
2019-01-16T21:06:18.105Z,99590.84
2019-01-16T21:08:57.171Z,99595.90
2019-01-16T21:11:27.115Z,99595.30
2019-01-16T21:13:57.153Z,99595.30
2019-01-16T21:16:29.788Z,99595.39
2019-01-16T21:19:00.028Z,99580.45
2019-01-16T21:21:45.987Z,99589.49
2019-01-16T21:24:15.961Z,99582.22
2019-01-16T21:26:51.434Z,99567.02
2019-01-16T21:29:23.948Z,99559.75
2019-01-16T21:32:10.795Z,99559.75
2019-01-16T21:34:43.253Z,99563.67
2019-01-16T21:37:13.172Z,99563.67
2019-01-16T21:39:59.376Z,99551.03
2019-01-16T21:42:45.781Z,99552.88
2019-01-16T21:45:30.729Z,99565.75
2019-01-16T21:48:06.587Z,99565.75
2019-01-16T21:50:39.195Z,99569.05
2019-01-16T21:53:11.752Z,99560.26
2019-01-16T21:55:41.758Z,99568.63
2019-01-16T21:58:28.014Z,99568.63
2019-01-16T22:01:00.720Z,99566.83
2019-01-16T22:03:36.362Z,99557.06
2019-01-16T22:06:12.260Z,99554.80
2019-01-16T22:08:57.104Z,99554.80
2019-01-16T22:11:43.027Z,99557.44
2019-01-16T22:14:31.105Z,99557.44
2019-01-16T22:17:04.355Z,99549.38
2019-01-16T22:19:34.281Z,99549.38
2019-01-16T22:22:04.234Z,99544.77
2019-01-16T22:24:36.668Z,99541.27
2019-01-16T22:27:12.469Z,99541.27
2019-01-16T22:29:45.048Z,99543.95
2019-01-16T22:32:20.734Z,99543.95
2019-01-16T22:34:50.675Z,99549.10
2019-01-16T22:37:38.885Z,99545.41
2019-01-16T22:40:26.625Z,99545.60
2019-01-16T22:42:56.569Z,99550.14
2019-01-16T22:45:42.845Z,99550.14
2019-01-16T22:48:24.773Z,99548.59
2019-01-16T22:51:00.436Z,99551.59
2019-01-16T22:53:33.203Z,99550.24
2019-01-16T22:56:03.530Z,99543.58
2019-01-16T22:58:42.181Z,99555.73
2019-01-16T23:01:12.703Z,99555.73
2019-01-16T23:03:54.559Z,99562.90
2019-01-16T23:06:40.363Z,99562.75
2019-01-16T23:09:27.185Z,99562.75
2019-01-16T23:11:57.353Z,99571.99
2019-01-16T23:14:36.756Z,99595.28
2019-01-16T23:17:06.640Z,99592.34
2019-01-16T23:19:36.615Z,99592.34
2019-01-16T23:22:21.356Z,99590.37
2019-01-16T23:24:53.997Z,99602.66
2019-01-16T23:27:26.660Z,99602.66
2019-01-16T23:29:59.160Z,99592.81
2019-01-16T23:32:29.156Z,99591.04
2019-01-16T23:35:14.046Z,99602.56
2019-01-16T23:38:00.398Z,99596.77
2019-01-16T23:40:33.211Z,99596.77
2019-01-16T23:43:09.546Z,99592.18
2019-01-16T23:45:42.380Z,99603.73
2019-01-16T23:48:12.332Z,99613.13
2019-01-16T23:50:42.306Z,99613.13
2019-01-16T23:53:14.701Z,99617.00
2019-01-16T23:55:53.767Z,99610.08
2019-01-16T23:58:38.820Z,99610.08
